Terminal Aerodrome Forecast
Issued by NWS Charleston, WV

Current Version | Previous Version | Graphics & Text | Print | Product List | Glossary On
Versions: 1 2 3 4 5 6 7 8 9 10 11 12 13 14 15 16 17 18 19 20 21
000
FTUS41 KRLX 300522
TAFPKB
TAF
KPKB 300522Z 3006/0106 VRB03KT 6SM HZ BKN170
     FM300900 00000KT 3/4SM BR BKN003
     FM301400 VRB03KT P6SM BKN080
     FM301900 VRB03KT 3SM -SHRA BR OVC025
     FM010300 16005KT 6SM -SHRA BR BKN035
     FM010500 17006KT 6SM BR BKN070=

USA.gov is the U.S. government's official web portal to all federal, state and local government web resources and services.